createdAt,value
2024-03-10T00:00:21.455Z,45.836000
2024-03-10T00:05:23.859Z,45.397143
2024-03-10T00:10:25.126Z,45.800000
2024-03-10T00:15:27.096Z,45.320000
2024-03-10T00:20:29.122Z,44.504000
2024-03-10T00:25:30.915Z,43.736000
2024-03-10T00:30:32.771Z,43.520000
2024-03-10T00:35:34.903Z,43.400000
2024-03-10T00:40:16.647Z,43.460000
2024-03-10T00:45:19.190Z,43.124000
2024-03-10T00:50:21.359Z,42.692000
2024-03-10T00:55:24.179Z,42.208571
2024-03-10T01:00:26.152Z,42.032000
2024-03-10T01:05:28.441Z,41.612000
2024-03-10T01:10:30.290Z,41.360000
2024-03-10T01:15:32.825Z,41.336000
2024-03-10T01:20:34.861Z,41.132000
2024-03-10T01:25:16.815Z,40.928000
2024-03-10T01:30:18.776Z,40.568000
2024-03-10T01:35:20.835Z,39.812000
2024-03-10T01:40:22.842Z,39.315714
2024-03-10T01:45:24.657Z,38.936000
2024-03-10T01:50:26.672Z,38.636000
2024-03-10T01:55:28.478Z,38.624000
2024-03-10T02:00:30.407Z,38.612000
2024-03-10T02:05:32.353Z,38.480000
2024-03-10T02:10:34.074Z,38.660000
2024-03-10T02:15:35.889Z,38.408000
2024-03-10T02:20:17.836Z,38.492000
2024-03-10T02:25:20.286Z,37.904000
2024-03-10T02:30:22.359Z,37.927143
2024-03-10T02:35:25.046Z,37.484000
2024-03-10T02:40:27.597Z,37.544000
2024-03-10T02:45:29.898Z,37.724000
2024-03-10T02:50:32.201Z,37.760000
2024-03-10T02:55:34.254Z,37.832000
2024-03-10T03:00:15.836Z,38.084000
2024-03-10T03:05:17.726Z,38.132000
2024-03-10T03:10:19.624Z,38.240000
2024-03-10T03:15:21.447Z,37.796000
2024-03-10T03:20:23.369Z,37.875714
2024-03-10T03:25:25.238Z,37.604000
2024-03-10T03:30:26.987Z,37.388000
2024-03-10T03:35:29.164Z,37.100000
2024-03-10T03:40:31.039Z,36.692000
2024-03-10T03:45:32.869Z,36.848000
2024-03-10T03:50:34.819Z,36.932000
2024-03-10T03:55:16.412Z,36.884000
2024-03-10T04:00:18.444Z,36.680000
2024-03-10T04:05:21.014Z,36.632000
2024-03-10T04:10:22.936Z,36.885714
2024-03-10T04:15:24.654Z,37.040000
2024-03-10T04:20:26.465Z,37.292000
2024-03-10T04:25:28.284Z,37.532000
2024-03-10T04:30:30.358Z,37.640000
2024-03-10T04:35:32.445Z,37.328000
2024-03-10T04:40:35.147Z,36.956000
2024-03-10T04:45:17.640Z,37.004000
2024-03-10T04:50:19.633Z,37.232000
2024-03-10T04:55:21.460Z,36.500000
2024-03-10T05:00:23.355Z,35.985714
2024-03-10T05:05:25.439Z,35.360000
2024-03-10T05:10:27.368Z,34.916000
2024-03-10T05:15:29.070Z,34.472000
2024-03-10T05:20:31.401Z,34.268000
2024-03-10T05:25:33.190Z,34.064000
2024-03-10T05:30:35.209Z,34.112000
2024-03-10T05:35:16.861Z,34.544000
2024-03-10T05:40:18.833Z,34.880000
2024-03-10T05:45:21.159Z,34.808000
2024-03-10T05:50:23.252Z,34.417143
2024-03-10T05:55:24.869Z,35.312000
2024-03-10T06:00:26.647Z,35.384000
2024-03-10T06:05:28.734Z,35.060000
2024-03-10T06:10:30.710Z,34.808000
2024-03-10T06:15:32.673Z,34.700000
2024-03-10T06:20:34.662Z,34.508000
2024-03-10T06:25:16.366Z,33.944000
2024-03-10T06:30:18.401Z,33.152000
2024-03-10T06:35:20.303Z,33.860000
2024-03-10T06:40:22.308Z,34.275714
2024-03-10T06:45:24.192Z,33.260000
2024-03-10T06:50:26.200Z,33.092000
2024-03-10T06:55:28.050Z,32.660000
2024-03-10T07:00:30.166Z,33.884000
2024-03-10T07:05:32.273Z,33.596000
2024-03-10T07:10:33.838Z,33.044000
2024-03-10T07:15:35.885Z,33.524000
2024-03-10T07:20:17.905Z,33.548000
2024-03-10T07:25:19.870Z,33.272000
2024-03-10T07:30:21.703Z,33.332000
2024-03-10T07:35:23.708Z,33.375714
2024-03-10T07:40:25.665Z,33.188000
2024-03-10T07:45:27.483Z,32.828000
2024-03-10T07:50:29.423Z,32.264000
2024-03-10T07:55:31.333Z,31.604000
2024-03-10T08:00:33.087Z,31.256000
2024-03-10T08:05:35.073Z,31.244000
2024-03-10T08:10:16.786Z,30.968000
2024-03-10T08:15:19.103Z,31.928000
2024-03-10T08:20:20.763Z,32.720000
2024-03-10T08:25:22.605Z,32.578571
2024-03-10T08:30:24.451Z,31.244000
2024-03-10T08:35:26.281Z,30.488000
2024-03-10T08:40:28.021Z,30.680000
2024-03-10T08:45:30.208Z,30.392000
2024-03-10T08:50:31.827Z,31.112000
2024-03-10T08:55:33.569Z,31.088000
2024-03-10T09:00:35.748Z,32.264000
2024-03-10T09:05:17.750Z,32.696000
2024-03-10T09:10:19.412Z,33.488000
2024-03-10T09:15:21.277Z,32.924000
2024-03-10T09:20:23.756Z,33.054286
2024-03-10T09:25:25.378Z,32.924000
2024-03-10T09:30:27.317Z,32.396000
2024-03-10T09:35:29.906Z,31.604000
2024-03-10T09:40:31.357Z,31.004000
2024-03-10T09:45:33.125Z,30.860000
2024-03-10T09:50:34.797Z,30.740000
2024-03-10T09:55:17.353Z,30.776000
2024-03-10T10:00:19.423Z,30.740000
2024-03-10T10:05:21.429Z,30.104000
2024-03-10T10:10:23.157Z,30.302857
2024-03-10T10:15:24.951Z,29.780000
2024-03-10T10:20:27.363Z,29.828000
2024-03-10T10:25:28.740Z,29.780000
2024-03-10T10:30:30.624Z,30.032000
2024-03-10T10:35:32.801Z,30.560000
2024-03-10T10:40:34.579Z,30.224000
2024-03-10T10:45:16.229Z,29.828000
2024-03-10T10:50:18.084Z,30.104000
2024-03-10T10:55:19.927Z,29.756000
2024-03-10T11:00:21.857Z,29.948000
2024-03-10T11:05:23.845Z,30.945714
2024-03-10T11:10:25.695Z,30.680000
2024-03-10T11:15:27.605Z,31.292000
2024-03-10T11:20:32.526Z,31.616000
2024-03-10T11:25:31.156Z,31.724000
2024-03-10T11:30:33.120Z,31.868000
2024-03-10T11:35:34.951Z,31.448000
2024-03-10T11:40:16.575Z,30.992000
2024-03-10T11:45:18.446Z,30.788000
2024-03-10T11:50:20.278Z,30.236000
2024-03-10T11:55:22.255Z,30.020000
2024-03-10T12:00:27.492Z,30.380000
2024-03-10T12:05:26.970Z,31.160000
2024-03-10T12:10:28.864Z,31.424000
2024-03-10T12:15:30.961Z,31.736000
2024-03-10T12:20:33.567Z,31.460000
2024-03-10T12:25:35.333Z,31.160000
2024-03-10T12:30:17.081Z,30.968000
2024-03-10T12:35:19.505Z,30.548000
2024-03-10T12:40:21.376Z,30.200000
2024-03-10T12:45:23.277Z,29.891429
2024-03-10T12:50:25.194Z,29.936000
2024-03-10T12:55:27.263Z,29.840000
2024-03-10T13:00:30.649Z,29.480000
2024-03-10T13:05:31.880Z,29.336000
2024-03-10T13:10:34.000Z,29.144000
2024-03-10T13:15:35.505Z,29.300000
2024-03-10T13:20:17.338Z,29.480000
2024-03-10T13:25:19.320Z,29.480000
2024-03-10T13:30:20.980Z,29.480000
2024-03-10T13:35:22.926Z,29.338571
2024-03-10T13:40:24.821Z,29.252000
2024-03-10T13:45:35.836Z,29.120000
2024-03-10T13:50:28.790Z,29.120000
2024-03-10T13:55:30.687Z,29.312000
2024-03-10T14:00:32.627Z,29.684000
2024-03-10T14:05:34.408Z,29.936000
2024-03-10T14:10:16.209Z,30.188000
2024-03-10T14:15:18.028Z,30.344000
2024-03-10T14:20:20.312Z,30.440000
2024-03-10T14:25:21.878Z,30.740000
2024-03-10T14:30:23.589Z,31.190000
2024-03-10T14:35:26.498Z,31.820000
2024-03-10T14:40:27.393Z,32.888000
2024-03-10T14:45:29.136Z,33.956000
2024-03-10T14:50:31.375Z,34.472000
2024-03-10T14:55:33.155Z,34.772000
2024-03-10T15:00:36.436Z,35.480000
2024-03-10T15:05:17.194Z,36.152000
2024-03-10T15:10:19.625Z,36.764000
2024-03-10T15:15:21.430Z,37.184000
2024-03-10T15:20:23.301Z,37.734286
2024-03-10T15:25:25.370Z,38.228000
2024-03-10T15:30:27.275Z,38.240000
2024-03-10T15:35:29.853Z,39.248000
2024-03-10T15:40:31.937Z,40.184000
2024-03-10T15:45:34.281Z,40.868000
2024-03-10T15:50:16.381Z,41.108000
2024-03-10T15:55:18.476Z,41.900000
2024-03-10T16:00:20.419Z,42.944000
2024-03-10T16:05:22.379Z,43.790000
2024-03-10T16:10:24.640Z,44.528000
2024-03-10T16:15:28.458Z,45.128000
2024-03-10T16:20:28.419Z,45.488000
2024-03-10T16:25:30.372Z,46.304000
2024-03-10T16:30:32.401Z,47.372000
2024-03-10T16:35:34.359Z,47.684000
2024-03-10T16:40:16.107Z,47.228000
2024-03-10T16:45:17.989Z,47.396000
2024-03-10T16:50:20.175Z,47.000000
2024-03-10T16:55:21.998Z,48.152000
2024-03-10T17:00:23.810Z,48.174286
2024-03-10T17:05:25.814Z,49.100000
2024-03-10T17:10:27.783Z,49.232000
2024-03-10T17:15:29.436Z,48.860000
2024-03-10T17:20:31.728Z,50.120000
2024-03-10T17:25:34.276Z,49.808000
2024-03-10T17:30:35.823Z,50.480000
2024-03-10T17:35:17.589Z,51.260000
2024-03-10T17:40:19.618Z,51.464000
2024-03-10T17:45:21.442Z,52.076000
2024-03-10T17:50:23.741Z,52.378571
2024-03-10T17:55:26.258Z,52.568000
2024-03-10T18:00:28.253Z,52.700000
2024-03-10T18:05:30.033Z,53.144000
2024-03-10T18:10:32.176Z,54.092000
2024-03-10T18:15:35.363Z,53.432000
2024-03-10T18:20:18.197Z,53.672000
2024-03-10T18:25:20.917Z,54.020000
2024-03-10T18:30:24.015Z,54.718571
2024-03-10T18:35:26.367Z,54.368000
2024-03-10T18:40:28.668Z,54.668000
2024-03-10T18:45:31.498Z,54.536000
2024-03-10T18:50:33.717Z,54.644000
2024-03-10T18:55:16.591Z,54.680000
2024-03-10T19:00:19.327Z,54.920000
2024-03-10T19:05:22.198Z,55.850000
2024-03-10T19:10:25.053Z,56.516000
2024-03-10T19:15:27.212Z,56.768000
2024-03-10T19:20:31.631Z,56.660000
2024-03-10T19:25:32.703Z,56.084000
2024-03-10T19:30:35.749Z,55.628000
2024-03-10T19:35:17.883Z,55.976000
2024-03-10T19:40:20.269Z,56.600000
2024-03-10T19:45:22.851Z,56.891429
2024-03-10T19:50:25.606Z,57.140000
2024-03-10T19:55:27.924Z,57.188000
2024-03-10T20:00:29.887Z,57.032000
2024-03-10T20:05:31.863Z,56.840000
2024-03-10T20:10:34.879Z,57.512000
2024-03-10T20:15:17.087Z,57.920000
2024-03-10T20:20:19.414Z,57.920000
2024-03-10T20:30:23.264Z,57.560000
2024-03-10T20:35:25.350Z,57.680000
2024-03-10T20:40:27.180Z,57.272000
2024-03-10T20:45:29.192Z,57.200000
2024-03-10T20:50:31.046Z,58.064000
2024-03-10T20:55:33.011Z,58.280000
2024-03-10T21:00:35.048Z,58.280000
2024-03-10T21:20:22.435Z,59.000000
2024-03-10T21:25:24.640Z,59.180000
2024-03-10T21:30:26.141Z,59.180000
2024-03-10T21:35:28.257Z,59.000000
2024-03-10T21:40:30.378Z,59.000000
2024-03-10T21:45:32.243Z,59.000000
2024-03-10T21:50:34.205Z,58.460000
2024-03-10T21:55:35.872Z,58.604000
2024-03-10T22:00:18.450Z,58.820000
2024-03-10T22:05:19.942Z,58.820000
2024-03-10T22:10:22.398Z,59.000000
2024-03-10T22:15:24.906Z,59.000000
2024-03-10T22:20:27.118Z,59.720000
2024-03-10T22:25:28.825Z,59.384000
2024-03-10T22:30:31.512Z,59.108000
2024-03-10T22:35:33.142Z,58.196000
2024-03-10T22:40:34.917Z,58.136000
2024-03-10T22:45:24.039Z,57.692000
2024-03-10T22:50:18.561Z,58.292000
2024-03-10T22:55:20.520Z,57.920000
2024-03-10T23:00:22.225Z,57.830000
2024-03-10T23:05:24.231Z,58.052000
2024-03-10T23:10:26.539Z,57.620000
2024-03-10T23:15:28.434Z,57.248000
2024-03-10T23:20:30.205Z,57.560000
2024-03-10T23:25:32.051Z,57.476000
2024-03-10T23:30:34.004Z,57.716000
2024-03-10T23:35:16.127Z,56.936000
2024-03-10T23:40:17.931Z,56.840000
2024-03-10T23:45:19.805Z,56.480000
2024-03-10T23:50:22.099Z,56.072000
2024-03-10T23:55:23.605Z,56.120000
